Camilo Daza International Airport

Airport
ICAO code: 
SKCC
IATA Code: 
CUC
Summary
ICAO Region: 
CARSAM
Territory: 
Location: 
Cocuta, Notre de Santander department
Serving: 
Notre de Santander
Elevation: 
1096 ft
Coordinates: 
Aerial View: 
7° 55' 39" N, 72° 30' 42.001" W
Metar
Observation
SKCC 030100Z 09003KT 9999 SCT018 SCT080 25/20 Q1013 RMK A2993
Station
Cucuta / Camilo Daza
Date/Time
2021-12-03 01:00:00
Wind direction
90°
Wind speed
03 kts
Lowest cloud amount
scattered clouds
Temperature
25°C
Dew point
20°C
Humidity
73%
QNH
1013 hPa
Weather condition
n/a

Camilo Daza International Airport is a civil airport located in Cúcuta, Colombia. The airport serves the Norte de Santander Department.

Climatology

Tropical savanna climate (Köppen climate classification Aw)

Runways

Designator Length Width Surface Rops
2/20 1933 45 ASP Yes/Yes
16/34 2347 45 ASP Yes/Yes
Airport map: 
Aerial View: 

SKYbrary Partners:

Safety knowledge contributed by: